createdAt,value
2023-02-19T00:01:34.412Z,2.00
2023-02-19T00:04:03.845Z,2.33
2023-02-19T00:06:33.250Z,2.63
2023-02-19T00:09:00.474Z,6.28
2023-02-19T00:11:29.648Z,9.40
2023-02-19T00:13:57.890Z,10.68
2023-02-19T00:16:28.022Z,6.68
2023-02-19T00:18:56.493Z,5.10
2023-02-19T00:21:23.421Z,4.40
2023-02-19T00:23:55.476Z,4.18
2023-02-19T00:26:22.319Z,3.58
2023-02-19T00:28:50.272Z,2.60
2023-02-19T00:31:24.223Z,2.78
2023-02-19T00:33:53.620Z,2.67
2023-02-19T00:36:20.955Z,3.92
2023-02-19T00:38:48.159Z,5.22
2023-02-19T00:41:19.142Z,5.10
2023-02-19T00:43:59.024Z,5.10
2023-02-19T00:46:28.862Z,5.13
2023-02-19T00:48:56.363Z,5.63
2023-02-19T00:51:25.936Z,6.30
2023-02-19T00:53:52.423Z,7.25
2023-02-19T00:56:19.282Z,7.78
2023-02-19T00:58:45.944Z,8.32
2023-02-19T01:01:12.721Z,9.60
2023-02-19T01:03:39.923Z,10.55
2023-02-19T01:06:08.984Z,7.50
2023-02-19T01:08:36.509Z,6.90
2023-02-19T01:11:04.867Z,5.97
2023-02-19T01:13:32.190Z,6.15
2023-02-19T01:16:14.567Z,5.35
2023-02-19T01:18:41.439Z,6.38
2023-02-19T01:21:11.678Z,6.53
2023-02-19T01:23:38.534Z,6.15
2023-02-19T01:26:06.579Z,6.63
2023-02-19T01:28:33.735Z,6.65
2023-02-19T01:31:09.204Z,7.22
2023-02-19T01:33:36.118Z,6.65
2023-02-19T01:36:07.243Z,5.95
2023-02-19T01:38:33.767Z,7.13
2023-02-19T01:41:03.496Z,6.97
2023-02-19T01:43:32.583Z,6.80
2023-02-19T01:45:59.524Z,6.15
2023-02-19T01:48:37.677Z,6.93
2023-02-19T01:51:11.740Z,5.40
2023-02-19T01:53:44.968Z,3.60
2023-02-19T01:56:15.037Z,2.17
2023-02-19T01:58:41.977Z,0.90
2023-02-19T02:01:08.934Z,0.80
2023-02-19T02:03:38.152Z,0.50
2023-02-19T02:09:04.544Z,0.47
2023-02-19T02:11:31.296Z,0.40
2023-02-19T02:13:58.504Z,0.60
2023-02-19T02:16:47.069Z,0.32
2023-02-19T02:19:25.564Z,0.60
2023-02-19T02:21:56.244Z,0.32
2023-02-19T02:24:50.670Z,0.50
2023-02-19T02:27:39.786Z,0.90
2023-02-19T02:30:25.502Z,0.70
2023-02-19T02:33:07.530Z,1.20
2023-02-19T02:35:42.730Z,1.05
2023-02-19T02:40:42.110Z,2.42
2023-02-19T02:43:08.718Z,5.07
2023-02-19T02:45:35.390Z,3.65
2023-02-19T02:48:19.792Z,1.50
2023-02-19T02:51:09.462Z,0.90
2023-02-19T02:54:11.963Z,0.40
2023-02-19T02:56:41.529Z,0.20
2023-02-19T02:59:10.314Z,0.40
2023-02-19T03:02:01.591Z,0.50
2023-02-19T03:05:02.852Z,0.40
2023-02-19T03:07:34.508Z,0.50
2023-02-19T03:10:05.687Z,0.82
2023-02-19T03:12:52.597Z,0.85
2023-02-19T03:15:38.144Z,0.60
2023-02-19T03:18:28.028Z,0.73
2023-02-19T03:20:57.889Z,0.50
2023-02-19T03:23:49.716Z,0.90
2023-02-19T03:26:18.485Z,0.80
2023-02-19T03:29:06.248Z,0.80
2023-02-19T03:31:33.630Z,0.80
2023-02-19T03:34:05.437Z,1.20
2023-02-19T03:36:38.086Z,1.20
2023-02-19T03:39:09.264Z,2.25
2023-02-19T03:41:42.721Z,1.88
2023-02-19T03:44:24.114Z,1.88
2023-02-19T03:46:56.948Z,2.78
2023-02-19T03:49:29.534Z,3.40
2023-02-19T03:52:08.118Z,3.63
2023-02-19T03:54:37.916Z,2.95
2023-02-19T03:57:19.195Z,3.47
2023-02-19T04:02:41.203Z,2.63
2023-02-19T04:05:16.755Z,2.63
2023-02-19T04:07:48.898Z,3.00
2023-02-19T04:10:17.739Z,3.00
2023-02-19T04:12:50.289Z,3.42
2023-02-19T04:15:22.094Z,3.42
2023-02-19T04:18:03.725Z,4.22
2023-02-19T04:20:34.739Z,4.20
2023-02-19T04:23:01.235Z,4.15
2023-02-19T04:25:30.485Z,3.30
2023-02-19T04:27:58.052Z,0.80
2023-02-19T04:30:24.781Z,0.65
2023-02-19T04:32:51.243Z,0.50
2023-02-19T04:35:17.708Z,0.70
2023-02-19T04:37:44.142Z,0.50
2023-02-19T04:40:11.029Z,0.50
2023-02-19T04:42:37.508Z,0.60
2023-02-19T04:45:04.268Z,0.40
2023-02-19T04:47:32.801Z,0.40
2023-02-19T04:49:59.452Z,0.63
2023-02-19T04:52:26.009Z,0.50
2023-02-19T04:54:52.539Z,0.35
2023-02-19T04:57:19.201Z,0.52
2023-02-19T04:59:46.708Z,0.50
2023-02-19T05:02:13.170Z,0.55
2023-02-19T05:04:39.636Z,0.65
2023-02-19T05:07:06.125Z,0.68
2023-02-19T05:09:32.843Z,0.40
2023-02-19T05:11:59.303Z,0.60
2023-02-19T05:14:26.138Z,0.60
2023-02-19T05:16:52.564Z,0.60
2023-02-19T05:19:18.978Z,0.50
2023-02-19T05:21:45.536Z,0.47
2023-02-19T05:24:12.035Z,0.50
2023-02-19T05:26:38.571Z,0.50
2023-02-19T05:29:05.051Z,0.52
2023-02-19T05:31:36.737Z,0.60
2023-02-19T05:34:03.567Z,0.43
2023-02-19T05:36:30.508Z,0.32
2023-02-19T05:38:57.877Z,0.30
2023-02-19T05:41:27.476Z,0.40
2023-02-19T05:43:55.156Z,0.45
2023-02-19T05:46:24.764Z,0.70
2023-02-19T05:48:52.940Z,0.43
2023-02-19T05:51:23.043Z,0.45
2023-02-19T05:53:50.570Z,0.40
2023-02-19T05:56:39.234Z,0.45
2023-02-19T05:59:16.997Z,0.47
2023-02-19T06:01:44.139Z,0.60
2023-02-19T06:04:11.999Z,0.70
2023-02-19T06:06:39.188Z,0.68
2023-02-19T06:09:06.787Z,0.70
2023-02-19T06:11:33.928Z,0.65
2023-02-19T06:14:00.861Z,0.65
2023-02-19T06:16:27.741Z,0.77
2023-02-19T06:18:54.527Z,0.70
2023-02-19T06:21:21.269Z,0.90
2023-02-19T06:23:47.828Z,0.88
2023-02-19T06:26:23.266Z,0.70
2023-02-19T06:28:51.747Z,1.00
2023-02-19T06:31:20.300Z,0.80
2023-02-19T06:33:47.607Z,1.10
2023-02-19T06:36:16.775Z,0.93
2023-02-19T06:38:44.342Z,0.88
2023-02-19T06:41:12.150Z,1.55
2023-02-19T06:43:39.076Z,1.35
2023-02-19T06:46:07.268Z,1.15
2023-02-19T06:48:34.751Z,1.05
2023-02-19T06:51:01.538Z,1.02
2023-02-19T06:53:28.202Z,1.00
2023-02-19T06:56:00.078Z,0.90
2023-02-19T06:58:27.351Z,0.80
2023-02-19T07:00:54.492Z,0.80
2023-02-19T07:03:22.122Z,1.00
2023-02-19T07:05:49.734Z,0.60
2023-02-19T07:08:19.644Z,0.85
2023-02-19T07:10:54.414Z,0.63
2023-02-19T07:13:21.264Z,0.50
2023-02-19T07:15:47.909Z,0.60
2023-02-19T07:18:14.528Z,0.90
2023-02-19T07:20:41.088Z,0.57
2023-02-19T07:23:07.741Z,0.90
2023-02-19T07:25:37.919Z,1.50
2023-02-19T07:28:04.695Z,1.55
2023-02-19T07:30:31.262Z,1.13
2023-02-19T07:32:57.953Z,1.70
2023-02-19T07:35:24.761Z,1.35
2023-02-19T07:37:51.436Z,1.38
2023-02-19T07:40:18.197Z,1.00
2023-02-19T07:42:44.796Z,1.20
2023-02-19T07:45:11.599Z,1.48
2023-02-19T07:47:39.133Z,1.52
2023-02-19T07:50:06.191Z,3.25
2023-02-19T07:52:34.389Z,2.80
2023-02-19T07:55:01.160Z,3.15
2023-02-19T07:57:29.184Z,5.10
2023-02-19T07:59:55.746Z,3.38
2023-02-19T08:02:42.446Z,1.95
2023-02-19T08:05:09.076Z,2.13
2023-02-19T08:07:37.024Z,1.52
2023-02-19T08:10:23.254Z,2.38
2023-02-19T08:13:18.428Z,1.88
2023-02-19T08:15:46.549Z,3.15
2023-02-19T08:18:14.747Z,1.83
2023-02-19T08:20:41.213Z,1.60
2023-02-19T08:23:10.939Z,1.38
2023-02-19T08:25:38.450Z,1.40
2023-02-19T08:28:05.689Z,1.75
2023-02-19T08:30:33.605Z,1.20
2023-02-19T08:33:02.217Z,0.80
2023-02-19T08:35:29.085Z,0.80
2023-02-19T08:37:58.773Z,0.60
2023-02-19T08:40:26.357Z,4.00
2023-02-19T08:42:53.009Z,10.18
2023-02-19T08:45:19.881Z,5.47
2023-02-19T08:47:46.336Z,0.70
2023-02-19T08:50:12.804Z,0.57
2023-02-19T08:52:39.410Z,0.60
2023-02-19T08:55:06.558Z,2.13
2023-02-19T08:57:37.613Z,1.60
2023-02-19T09:00:05.672Z,0.80
2023-02-19T09:02:32.248Z,1.30
2023-02-19T09:04:58.680Z,1.00
2023-02-19T09:07:25.212Z,1.38
2023-02-19T09:09:51.846Z,1.00
2023-02-19T09:12:18.761Z,1.27
2023-02-19T09:14:45.628Z,1.88
2023-02-19T09:17:12.326Z,0.80
2023-02-19T09:19:38.787Z,0.90
2023-02-19T09:22:06.024Z,1.33
2023-02-19T09:24:32.848Z,1.02
2023-02-19T09:26:59.800Z,0.80
2023-02-19T09:29:27.855Z,1.10
2023-02-19T09:31:59.287Z,0.70
2023-02-19T09:34:27.972Z,0.80
2023-02-19T09:36:54.887Z,0.73
2023-02-19T09:39:21.729Z,0.60
2023-02-19T09:42:01.288Z,1.35
2023-02-19T09:44:32.262Z,1.10
2023-02-19T09:47:00.628Z,1.05
2023-02-19T09:49:40.653Z,0.82
2023-02-19T09:52:24.752Z,1.30
2023-02-19T09:54:57.511Z,0.40
2023-02-19T09:57:25.966Z,1.13
2023-02-19T09:59:59.125Z,1.23
2023-02-19T10:02:26.196Z,0.90
2023-02-19T10:04:53.599Z,0.70
2023-02-19T10:07:24.086Z,1.58
2023-02-19T10:10:14.293Z,1.00
2023-02-19T10:12:48.305Z,0.98
2023-02-19T10:15:25.503Z,0.80
2023-02-19T10:17:52.738Z,1.00
2023-02-19T10:20:24.583Z,0.68
2023-02-19T10:22:58.916Z,2.60
2023-02-19T10:25:25.475Z,0.55
2023-02-19T10:27:52.028Z,0.40
2023-02-19T10:30:23.784Z,0.68
2023-02-19T10:33:01.152Z,0.40
2023-02-19T10:35:28.116Z,0.60
2023-02-19T10:37:54.707Z,0.70
2023-02-19T10:40:27.123Z,2.33
2023-02-19T10:42:58.913Z,1.08
2023-02-19T10:45:50.304Z,0.80
2023-02-19T10:48:35.138Z,0.60
2023-02-19T10:51:06.017Z,0.80
2023-02-19T10:53:43.555Z,0.47
2023-02-19T10:56:26.669Z,0.70
2023-02-19T10:58:53.184Z,0.57
2023-02-19T11:01:22.215Z,0.90
2023-02-19T11:06:20.596Z,0.70
2023-02-19T11:09:00.007Z,0.85
2023-02-19T11:11:34.659Z,0.90
2023-02-19T11:14:05.564Z,1.30
2023-02-19T11:16:53.463Z,1.02
2023-02-19T11:19:42.517Z,1.08
2023-02-19T11:22:30.775Z,0.98
2023-02-19T11:25:18.584Z,0.85
2023-02-19T11:27:55.465Z,0.80
2023-02-19T11:30:33.303Z,1.00
2023-02-19T11:33:16.181Z,1.30
2023-02-19T11:35:44.964Z,0.60
2023-02-19T11:38:14.306Z,0.52
2023-02-19T11:40:46.029Z,0.38
2023-02-19T11:43:46.408Z,1.70
2023-02-19T11:46:39.177Z,8.23
2023-02-19T11:49:36.519Z,10.27
2023-02-19T11:52:41.749Z,5.55
2023-02-19T11:55:13.704Z,4.13
2023-02-19T11:57:47.885Z,4.57
2023-02-19T12:00:49.028Z,7.70
2023-02-19T12:03:48.859Z,8.80
2023-02-19T12:06:15.286Z,8.10
2023-02-19T12:08:53.460Z,7.15
2023-02-19T12:11:38.256Z,3.38
2023-02-19T12:14:41.734Z,2.58
2023-02-19T12:17:29.750Z,3.83
2023-02-19T12:19:58.720Z,2.70
2023-02-19T12:25:16.290Z,1.05
2023-02-19T12:27:49.123Z,0.77
2023-02-19T12:30:41.885Z,0.68
2023-02-19T12:33:54.481Z,0.70
2023-02-19T12:36:35.903Z,0.77
2023-02-19T12:39:14.271Z,0.40
2023-02-19T12:41:51.958Z,0.77
2023-02-19T12:44:34.708Z,0.63
2023-02-19T12:47:02.480Z,0.88
2023-02-19T12:49:36.456Z,1.60
2023-02-19T12:52:23.781Z,1.00
2023-02-19T12:54:56.210Z,0.70
2023-02-19T12:57:29.758Z,0.57
2023-02-19T13:00:12.688Z,0.50
2023-02-19T13:03:13.504Z,0.45
2023-02-19T13:05:49.845Z,0.55
2023-02-19T13:08:42.100Z,0.40
2023-02-19T13:11:22.830Z,0.40
2023-02-19T13:14:06.323Z,0.50
2023-02-19T13:16:37.184Z,0.30
2023-02-19T13:19:05.077Z,0.40
2023-02-19T13:21:55.065Z,0.45
2023-02-19T13:24:27.575Z,0.60
2023-02-19T13:27:25.454Z,0.40
2023-02-19T13:30:26.302Z,0.40
2023-02-19T13:33:01.987Z,0.50
2023-02-19T13:35:55.962Z,0.50
2023-02-19T13:38:23.143Z,0.30
2023-02-19T13:41:27.648Z,0.40
2023-02-19T13:43:57.606Z,0.40
2023-02-19T13:46:25.754Z,0.43
2023-02-19T13:49:36.488Z,0.50
2023-02-19T13:52:30.403Z,0.30
2023-02-19T13:55:34.335Z,0.20
2023-02-19T13:58:35.862Z,0.32
2023-02-19T14:01:10.633Z,0.32
2023-02-19T14:03:37.202Z,0.40
2023-02-19T14:06:06.412Z,0.40
2023-02-19T14:08:52.671Z,0.45
2023-02-19T14:11:41.605Z,0.50
2023-02-19T14:14:23.427Z,0.85
2023-02-19T14:17:08.673Z,1.08
2023-02-19T14:19:41.176Z,2.30
2023-02-19T14:22:56.928Z,0.95
2023-02-19T14:25:43.619Z,0.70
2023-02-19T14:28:10.012Z,0.75
2023-02-19T14:30:42.539Z,0.75
2023-02-19T14:33:11.412Z,0.88
2023-02-19T14:35:44.107Z,0.85
2023-02-19T14:38:33.640Z,0.70
2023-02-19T14:41:01.026Z,0.60
2023-02-19T14:43:28.714Z,0.70
2023-02-19T14:46:00.288Z,0.50
2023-02-19T14:48:31.531Z,0.30
2023-02-19T14:51:04.758Z,0.38
2023-02-19T14:53:36.214Z,0.40
2023-02-19T14:56:03.718Z,0.50
2023-02-19T14:58:34.258Z,0.60
2023-02-19T15:01:00.741Z,0.60
2023-02-19T15:03:37.774Z,0.88
2023-02-19T15:06:12.638Z,0.50
2023-02-19T15:08:44.222Z,0.50
2023-02-19T15:11:17.375Z,0.40
2023-02-19T15:13:49.215Z,0.50
2023-02-19T15:16:18.447Z,0.57
2023-02-19T15:18:46.810Z,0.57
2023-02-19T15:21:43.284Z,0.60
2023-02-19T15:24:14.258Z,0.60
2023-02-19T15:26:43.220Z,0.50
2023-02-19T15:29:11.781Z,0.68
2023-02-19T15:31:48.329Z,0.50
2023-02-19T15:34:26.155Z,0.65
2023-02-19T15:36:59.658Z,0.40
2023-02-19T15:39:33.197Z,0.60
2023-02-19T15:42:02.330Z,0.32
2023-02-19T15:44:31.152Z,0.50
2023-02-19T15:47:03.011Z,0.70
2023-02-19T15:49:45.002Z,0.40
2023-02-19T15:52:19.644Z,0.65
2023-02-19T15:54:59.479Z,0.40
2023-02-19T15:57:32.359Z,0.45
2023-02-19T16:00:29.816Z,0.40
2023-02-19T16:02:58.060Z,0.38
2023-02-19T16:05:26.867Z,0.40
2023-02-19T16:08:20.646Z,0.40
2023-02-19T16:10:55.901Z,0.40
2023-02-19T16:16:17.100Z,0.30
2023-02-19T16:18:46.634Z,0.30
2023-02-19T16:21:16.772Z,0.43
2023-02-19T16:23:45.149Z,0.40
2023-02-19T16:26:11.882Z,0.30
2023-02-19T16:28:40.288Z,0.40
2023-02-19T16:31:12.520Z,0.47
2023-02-19T16:33:40.539Z,0.40
2023-02-19T16:36:34.067Z,0.30
2023-02-19T16:39:03.185Z,0.55
2023-02-19T16:41:29.806Z,0.80
2023-02-19T16:43:56.291Z,0.63
2023-02-19T16:46:23.142Z,1.02
2023-02-19T16:48:53.312Z,0.80
2023-02-19T16:51:26.907Z,0.50
2023-02-19T16:53:53.387Z,0.80
2023-02-19T16:56:23.010Z,0.57
2023-02-19T16:58:50.514Z,0.82
2023-02-19T17:01:18.055Z,0.60
2023-02-19T17:03:47.042Z,0.80
2023-02-19T17:06:14.179Z,0.88
2023-02-19T17:08:44.769Z,0.90
2023-02-19T17:11:16.621Z,1.40
2023-02-19T17:13:47.640Z,1.60
2023-02-19T17:16:19.760Z,1.83
2023-02-19T17:18:46.431Z,2.38
2023-02-19T17:21:27.605Z,2.53
2023-02-19T17:23:54.526Z,3.70
2023-02-19T17:26:24.100Z,1.67
2023-02-19T17:28:50.974Z,1.48
2023-02-19T17:31:18.113Z,1.40
2023-02-19T17:33:46.787Z,1.50
2023-02-19T17:36:22.240Z,1.33
2023-02-19T17:38:48.711Z,1.20
2023-02-19T17:41:15.615Z,1.17
2023-02-19T17:43:42.033Z,1.30
2023-02-19T17:46:14.654Z,1.58
2023-02-19T17:48:43.660Z,1.70
2023-02-19T17:51:10.896Z,1.70
2023-02-19T17:53:37.681Z,1.73
2023-02-19T17:56:04.566Z,1.50
2023-02-19T17:58:31.166Z,1.77
2023-02-19T18:00:58.004Z,2.42
2023-02-19T18:03:24.496Z,2.60
2023-02-19T18:05:50.973Z,3.10
2023-02-19T18:08:19.751Z,3.15
2023-02-19T18:10:46.269Z,4.32
2023-02-19T18:13:13.024Z,4.25
2023-02-19T18:15:39.493Z,4.07
2023-02-19T18:18:05.965Z,2.72
2023-02-19T18:20:32.541Z,2.65
2023-02-19T18:22:59.031Z,2.35
2023-02-19T18:25:25.707Z,1.55
2023-02-19T18:27:53.079Z,1.80
2023-02-19T18:30:22.696Z,1.85
2023-02-19T18:32:49.743Z,2.10
2023-02-19T18:35:18.366Z,2.33
2023-02-19T18:37:45.559Z,2.08
2023-02-19T18:40:12.778Z,2.65
2023-02-19T18:42:39.874Z,2.58
2023-02-19T18:45:07.886Z,2.03
2023-02-19T18:47:34.426Z,2.70
2023-02-19T18:50:00.984Z,2.80
2023-02-19T18:52:30.637Z,2.90
2023-02-19T18:55:03.675Z,2.75
2023-02-19T18:57:30.141Z,3.50
2023-02-19T18:59:56.574Z,3.45
2023-02-19T19:02:23.321Z,2.90
2023-02-19T19:04:52.041Z,3.25
2023-02-19T19:07:20.207Z,3.40
2023-02-19T19:09:47.356Z,3.50
2023-02-19T19:12:14.559Z,3.63
2023-02-19T19:14:41.464Z,3.45
2023-02-19T19:17:07.986Z,3.35
2023-02-19T19:19:34.485Z,3.28
2023-02-19T19:22:00.933Z,3.40
2023-02-19T19:24:27.474Z,3.30
2023-02-19T19:26:54.166Z,3.35
2023-02-19T19:29:22.183Z,3.72
2023-02-19T19:31:49.211Z,3.22
2023-02-19T19:34:16.656Z,3.60
2023-02-19T19:36:43.590Z,3.72
2023-02-19T19:39:10.098Z,3.53
2023-02-19T19:41:36.642Z,3.75
2023-02-19T19:44:05.145Z,3.30
2023-02-19T19:46:32.898Z,3.60
2023-02-19T19:48:59.969Z,3.13
2023-02-19T19:51:34.344Z,3.17
2023-02-19T19:54:03.098Z,3.25
2023-02-19T19:56:30.273Z,3.53
2023-02-19T19:58:56.817Z,2.75
2023-02-19T20:01:23.671Z,3.33
2023-02-19T20:03:52.926Z,3.13
2023-02-19T20:08:58.033Z,3.13
2023-02-19T20:11:24.479Z,3.20
2023-02-19T20:13:51.241Z,4.03
2023-02-19T20:16:23.915Z,4.35
2023-02-19T20:18:50.386Z,4.10
2023-02-19T20:21:16.849Z,4.70
2023-02-19T20:23:43.330Z,4.72
2023-02-19T20:26:09.813Z,4.78
2023-02-19T20:28:36.244Z,4.95
2023-02-19T20:31:02.988Z,5.13
2023-02-19T20:33:29.697Z,5.22
2023-02-19T20:35:57.075Z,5.40
2023-02-19T20:38:24.057Z,5.28
2023-02-19T20:40:51.037Z,4.72
2023-02-19T20:43:18.864Z,5.40
2023-02-19T20:45:48.330Z,5.00
2023-02-19T20:48:16.805Z,5.25
2023-02-19T20:50:43.723Z,4.70
2023-02-19T20:53:11.003Z,5.25
2023-02-19T20:55:37.751Z,4.97
2023-02-19T20:58:04.265Z,5.45
2023-02-19T21:00:30.740Z,5.10
2023-02-19T21:02:57.261Z,4.80
2023-02-19T21:05:23.782Z,5.15
2023-02-19T21:07:50.246Z,5.47
2023-02-19T21:10:16.980Z,5.10
2023-02-19T21:12:43.423Z,5.53
2023-02-19T21:15:09.897Z,5.25
2023-02-19T21:17:36.359Z,5.30
2023-02-19T21:20:02.980Z,5.43
2023-02-19T21:22:29.381Z,4.70
2023-02-19T21:24:55.778Z,4.80
2023-02-19T21:27:22.288Z,4.95
2023-02-19T21:29:48.854Z,4.63
2023-02-19T21:32:15.435Z,4.53
2023-02-19T21:34:42.160Z,4.80
2023-02-19T21:37:08.650Z,4.50
2023-02-19T21:39:35.139Z,4.97
2023-02-19T21:42:02.557Z,4.53
2023-02-19T21:44:29.093Z,3.95
2023-02-19T21:46:55.961Z,4.68
2023-02-19T21:49:22.635Z,4.22
2023-02-19T21:51:50.175Z,4.50
2023-02-19T21:54:21.029Z,3.75
2023-02-19T21:56:52.146Z,4.28
2023-02-19T21:59:20.822Z,4.15
2023-02-19T22:01:47.824Z,3.90
2023-02-19T22:04:18.338Z,4.05
2023-02-19T22:06:45.209Z,3.47
2023-02-19T22:09:13.037Z,4.03
2023-02-19T22:11:40.255Z,3.92
2023-02-19T22:14:07.036Z,3.80
2023-02-19T22:16:33.577Z,4.07
2023-02-19T22:19:00.592Z,3.78
2023-02-19T22:21:32.442Z,4.03
2023-02-19T22:24:00.222Z,3.38
2023-02-19T22:26:36.403Z,3.67
2023-02-19T22:29:06.888Z,3.40
2023-02-19T22:31:34.076Z,3.50
2023-02-19T22:34:00.676Z,3.72
2023-02-19T22:36:30.809Z,3.70
2023-02-19T22:38:57.442Z,3.42
2023-02-19T22:41:23.910Z,4.30
2023-02-19T22:43:50.588Z,4.05
2023-02-19T22:46:20.021Z,3.33
2023-02-19T22:48:46.525Z,3.72
2023-02-19T22:51:15.575Z,3.20
2023-02-19T22:53:53.569Z,3.20
2023-02-19T22:56:22.430Z,3.60
2023-02-19T22:58:49.458Z,3.30
2023-02-19T23:01:16.754Z,3.58
2023-02-19T23:03:53.394Z,3.58
2023-02-19T23:06:29.333Z,2.80
2023-02-19T23:08:58.142Z,2.95
2023-02-19T23:11:27.754Z,3.35
2023-02-19T23:13:54.538Z,3.28
2023-02-19T23:16:21.400Z,3.28
2023-02-19T23:18:48.811Z,3.50
2023-02-19T23:21:16.098Z,3.13
2023-02-19T23:23:43.217Z,3.33
2023-02-19T23:26:10.943Z,3.40
2023-02-19T23:28:39.649Z,3.45
2023-02-19T23:31:06.657Z,3.10
2023-02-19T23:33:33.318Z,3.03
2023-02-19T23:35:59.764Z,2.83
2023-02-19T23:38:26.176Z,3.63
2023-02-19T23:40:52.648Z,3.40
2023-02-19T23:43:19.504Z,3.85
2023-02-19T23:45:46.180Z,3.25
2023-02-19T23:48:12.786Z,3.28
2023-02-19T23:50:39.226Z,3.20
2023-02-19T23:53:05.813Z,2.63
2023-02-19T23:55:32.250Z,2.80
2023-02-19T23:57:58.836Z,3.13
